Welcome to Northern Hawkes Bay. New Zealand.
PWS Header
      nz Flag



Hit Counter


W3C Valid W3C Valid logo


    Wairoa

Select any of the Stations below to visit their websites.










Historic Data from Weather Underground
Select the location of interest below. Wairoa is the default. Please have patience, this Data is slow to load in.
Northern Hawkes Bay Historical Data
Daily Summary for February 9, 2017 Units:  English    Metric   Both
« Previous Day
Next Day »
Daily Weekly Monthly Yearly Custom
  High: Low: Average:
Temperature: 68 °F 55 °F 60.6 °F
Dew Point: 55 °F 44.2 °F 49.3 °F
Humidity: 98% 46% 68%
Wind Speed: 15.9mph 0mph 5.3mph
Wind Gust: 20.6mph - -
Wind- - SSE
Pressure: 30.3 in 30.1 in -
Precipitation: 0 in    
Historical Graphs
 
 
Tabular Data for February 9, 2017
Time Temperature Dew Point Pressure Wind Wind Speed Wind Gust Humidity Rainfall Rate (Hourly) solar
00:03 60.8 °F 51.1 °F 30.3 in South 8.3 mph 15.2 mph 70% 0.04 in 0 W/m2
00:08 61.2 °F 50.5 °F 30.3 in South 4.5 mph 15.2 mph 68% 0 in 0 W/m2
00:13 61 °F 51.1 °F 30.3 in SSE 6.9 mph 13 mph 70% 0 in 0 W/m2
00:18 61.2 °F 51.3 °F 30.3 in SSE 5.4 mph 14.5 mph 70% 0 in 0 W/m2
00:23 61 °F 52 °F 30.3 in SSE 4.5 mph 14.5 mph 72% 0 in 0 W/m2
00:28 61 °F 52.3 °F 30.3 in SSE 5.4 mph 10.7 mph 73% 0 in 0 W/m2
00:33 61 °F 52 °F 30.3 in SSE 3.8 mph 9.8 mph 72% 0 in 0 W/m2
00:38 61.2 °F 52.2 °F 30.3 in South 10.7 mph 18.3 mph 72% 0 in 0 W/m2
00:43 61.2 °F 54.7 °F 30.3 in South 11.4 mph 19.7 mph 79% 0 in 0 W/m2
00:48 60.8 °F 54.7 °F 30.3 in South 9.2 mph 19.7 mph 80% 0 in 0 W/m2
00:58 59 °F 54.5 °F 30.3 in SSE 9.8 mph 19 mph 85% 0.06 in 0 W/m2
01:03 59.2 °F 55 °F 30.3 in SSE 9.8 mph 19 mph 86% 0.06 in 0 W/m2
01:08 59.2 °F 54.7 °F 30.3 in SSE 7.6 mph 19 mph 85% 0.06 in 0 W/m2
01:13 59.2 °F 54.3 °F 30.3 in SSE 10.7 mph 19.7 mph 84% 0.06 in 0 W/m2
01:18 59.2 °F 54.3 °F 30.3 in SSE 11.4 mph 20.6 mph 84% 0.06 in 0 W/m2
01:23 59.2 °F 54.7 °F 30.3 in South 9.2 mph 20.6 mph 85% 0.06 in 0 W/m2
01:28 59 °F 54.1 °F 30.3 in South 7.6 mph 20.6 mph 84% 0.06 in 0 W/m2
01:33 59 °F 54 °F 30.3 in SSE 7.6 mph 20.6 mph 83% 0.06 in 0 W/m2
01:38 59.2 °F 53.8 °F 30.3 in SSE 6 mph 16.8 mph 82% 0.06 in 0 W/m2
01:43 59.2 °F 54 °F 30.3 in South 13 mph 17.4 mph 83% 0.06 in 0 W/m2
01:48 59.2 °F 54 °F 30.3 in South 9.2 mph 17.4 mph 83% 0.06 in 0 W/m2
01:53 59.2 °F 54 °F 30.3 in South 15.9 mph 19 mph 83% 0.01 in 0 W/m2
01:58 59.2 °F 53.8 °F 30.3 in South 13.6 mph 19.7 mph 82% 0 in 0 W/m2
02:03 59.4 °F 54.1 °F 30.3 in South 9.2 mph 19.7 mph 83% 0 in 0 W/m2
02:08 59.4 °F 52.9 °F 30.3 in South 9.8 mph 18.3 mph 79% 0 in 0 W/m2
02:13 59.2 °F 53.1 °F 30.3 in South 9.2 mph 18.3 mph 80% 0 in 0 W/m2
02:18 59 °F 52.5 °F 30.3 in SSE 8.3 mph 18.3 mph 79% 0 in 0 W/m2
02:23 59 °F 52.5 °F 30.3 in SSE 10.7 mph 18.3 mph 79% 0 in 0 W/m2
02:28 59.2 °F 51.6 °F 30.3 in SSE 7.6 mph 18.3 mph 76% 0 in 0 W/m2
02:33 59.2 °F 52 °F 30.3 in SSE 11.4 mph 20.6 mph 77% 0 in 0 W/m2
02:38 59 °F 52.2 °F 30.3 in SSE 9.2 mph 20.6 mph 78% 0 in 0 W/m2
02:43 58.8 °F 52.7 °F 30.3 in SSE 10.7 mph 16.8 mph 80% 0 in 0 W/m2
02:48 58.6 °F 52.2 °F 30.3 in SSE 5.4 mph 16.8 mph 79% 0 in 0 W/m2
02:53 58.6 °F 51.8 °F 30.3 in SSE 6.9 mph 14.5 mph 78% 0 in 0 W/m2
02:58 58.8 °F 52.3 °F 30.3 in SSE 5.4 mph 17.4 mph 79% 0 in 0 W/m2
03:03 58.8 °F 52 °F 30.3 in SE 9.8 mph 17.4 mph 78% 0 in 0 W/m2
03:08 59 °F 51.8 °F 30.3 in South 5.4 mph 13.6 mph 77% 0 in 0 W/m2
03:13 59 °F 51.8 °F 30.3 in South 7.6 mph 13.6 mph 77% 0 in 0 W/m2
03:18 59 °F 52.5 °F 30.3 in SSE 7.6 mph 13.6 mph 79% 0 in 0 W/m2
03:23 59 °F 52.2 °F 30.3 in South 4.5 mph 13 mph 78% 0 in 0 W/m2
03:28 59.2 °F 52 °F 30.3 in SSE 6 mph 13.6 mph 77% 0 in 0 W/m2
03:33 59.2 °F 51.6 °F 30.3 in SSE 7.6 mph 14.5 mph 76% 0 in 0 W/m2
03:38 59.2 °F 52.3 °F 30.3 in SSE 6.9 mph 14.5 mph 78% 0 in 0 W/m2
03:43 59.2 °F 52.3 °F 30.3 in South 3.1 mph 11.4 mph 78% 0 in 0 W/m2
03:48 59 °F 52.2 °F 30.3 in SSE 6.9 mph 15.2 mph 78% 0 in 0 W/m2
03:53 58.6 °F 52.5 °F 30.3 in SSE 8.3 mph 15.2 mph 80% 0 in 0 W/m2
04:10 56.3 °F 53.8 °F 30.3 in East 7.6 mph 13.6 mph 91% 0.04 in 0 W/m2
04:15 55.6 °F 54 °F 30.3 in ESE 2.2 mph 13.6 mph 94% 0.06 in 0 W/m2
04:20 55.2 °F 53.8 °F 30.3 in East 3.1 mph 10.7 mph 95% 0.09 in 0 W/m2
04:25 55 °F 54 °F 30.2 in East 3.1 mph 7.6 mph 96% 0.11 in 0 W/m2
04:30 55.2 °F 54.3 °F 30.3 in ESE 2.2 mph 5.4 mph 97% 0.11 in 0 W/m2
04:35 55.4 °F 54.9 °F 30.3 in SSE 3.1 mph 6.9 mph 98% 0.11 in 0 W/m2
04:40 55.2 °F 54.3 °F 30.3 in SSE 3.1 mph 6.9 mph 97% 0.11 in 0 W/m2
04:45 55.2 °F 54.3 °F 30.3 in SSE 3.8 mph 9.8 mph 97% 0.11 in 0 W/m2
04:50 55.2 °F 54.3 °F 30.3 in South 3.1 mph 9.8 mph 97% 0.11 in 0 W/m2
04:55 55.2 °F 54.3 °F 30.3 in SSE 3.8 mph 9.8 mph 97% 0.11 in 0 W/m2
05:00 55.2 °F 54.3 °F 30.3 in SE 3.1 mph 9.8 mph 97% 0.11 in 0 W/m2
05:05 55.2 °F 54.3 °F 30.3 in SE 3.1 mph 9.8 mph 97% 0.09 in 0 W/m2
05:10 55.2 °F 54.3 °F 30.3 in SE 3.1 mph 7.6 mph 97% 0.07 in 0 W/m2
05:15 55.2 °F 54.3 °F 30.3 in South 3.1 mph 7.6 mph 97% 0.05 in 0 W/m2
05:20 55.4 °F 54.9 °F 30.3 in South 5.4 mph 7.6 mph 98% 0.01 in 0 W/m2
05:25 55.6 °F 54.9 °F 30.3 in SSE 6.9 mph 9.8 mph 97% 0.01 in 0 W/m2
05:30 55.6 °F 54.5 °F 30.3 in South 6 mph 9.8 mph 96% 0.01 in 0 W/m2
05:35 55.6 °F 54.1 °F 30.2 in SSE 3.1 mph 9.8 mph 95% 0.01 in 0 W/m2
05:40 55.8 °F 54.3 °F 30.2 in SSE 6.9 mph 9.2 mph 95% 0.01 in 0 W/m2
05:45 55.9 °F 54 °F 30.2 in South 1.6 mph 11.4 mph 93% 0.01 in 0 W/m2
05:50 55.9 °F 53.8 °F 30.3 in South 4.5 mph 11.4 mph 92% 0.01 in 0 W/m2
05:55 55.9 °F 53.4 °F 30.2 in South 4.5 mph 9.8 mph 91% 0.01 in 0 W/m2
06:00 55.9 °F 53.1 °F 30.2 in SSE 3.1 mph 9.8 mph 90% 0.01 in 0 W/m2
06:05 55.9 °F 53.1 °F 30.2 in SSE 3.1 mph 7.6 mph 90% 0.01 in 0 W/m2
06:10 55.9 °F 52.9 °F 30.2 in South 3.1 mph 9.2 mph 89% 0.01 in 0 W/m2
06:15 56.7 °F 52.5 °F 30.2 in South 6.9 mph 13.6 mph 86% 0.01 in 0 W/m2
06:16 56.7 °F 52.5 °F 30.2 in South 7.6 mph 13.6 mph 86% 0.01 in 0 W/m2
06:21 57.2 °F 51.1 °F 30.2 in South 5.4 mph 19 mph 80% 0.01 in 0 W/m2
06:26 57.4 °F 50.5 °F 30.2 in South 6.9 mph 19 mph 78% 0 in 0 W/m2
06:31 58.3 °F 51.1 °F 30.2 in South 11.4 mph 13.6 mph 77% 0 in 0 W/m2
06:36 57.9 °F 51.1 °F 30.2 in South 12.1 mph 16.8 mph 78% 0 in 0 W/m2
06:41 58.1 °F 51.3 °F 30.2 in South 8.3 mph 16.8 mph 78% 0 in 0 W/m2
06:46 58.1 °F 51.3 °F 30.2 in South 9.8 mph 15.9 mph 78% 0 in 0 W/m2
06:51 57.2 °F 51.4 °F 30.2 in South 11.4 mph 15.9 mph 81% 0 in 0 W/m2
06:56 57 °F 52 °F 30.2 in South 7.6 mph 15.2 mph 83% 0 in 1 W/m2
07:01 57.2 °F 51.8 °F 30.2 in SSE 1.6 mph 15.2 mph 82% 0 in 4 W/m2
07:06 57.4 °F 51.3 °F 30.2 in SE 7.6 mph 13 mph 80% 0.01 in 5 W/m2
07:11 57.2 °F 52.2 °F 30.2 in SSE 12.1 mph 17.4 mph 83% 0.01 in 6 W/m2
07:16 56.8 °F 51.4 °F 30.2 in South 6.9 mph 17.4 mph 82% 0.01 in 8 W/m2
07:21 57.2 °F 50.4 °F 30.2 in South 4.5 mph 17.4 mph 78% 0.01 in 9 W/m2
07:26 57 °F 50.9 °F 30.2 in SSE 2.2 mph 15.9 mph 80% 0.01 in 13 W/m2
07:31 57.4 °F 50.5 °F 30.2 in SSE 8.3 mph 14.5 mph 78% 0.02 in 16 W/m2
07:36 57.9 °F 50.2 °F 30.2 in SSE 8.3 mph 14.5 mph 75% 0.02 in 13 W/m2
07:41 58.5 °F 50.5 °F 30.2 in SSE 3.1 mph 13 mph 75% 0.02 in 18 W/m2
07:47 58.5 °F 50.2 °F 30.2 in SE 5.4 mph 13.6 mph 74% 0.02 in 23 W/m2
07:52 58.8 °F 50.2 °F 30.2 in SSE 5.4 mph 13.6 mph 73% 0.02 in 31 W/m2
07:57 59.2 °F 49.5 °F 30.2 in SSE 8.3 mph 14.5 mph 70% 0.02 in 35 W/m2
08:02 59.5 °F 50.2 °F 30.2 in South 9.2 mph 14.5 mph 71% 0.02 in 39 W/m2
08:07 59.5 °F 49.5 °F 30.2 in SSE 6.9 mph 14.5 mph 69% 0.01 in 44 W/m2
08:14 59.7 °F 49.5 °F 30.2 in SE 3.8 mph 13 mph 69% 0.01 in 32 W/m2
08:19 59.7 °F 51.1 °F 30.2 in SSE 2.2 mph 13 mph 73% 0.01 in 32 W/m2
08:24 59.5 °F 50.9 °F 30.2 in SE 3.8 mph 9.8 mph 73% 0.01 in 37 W/m2
08:29 59.7 °F 50.4 °F 30.2 in SSE 6 mph 14.5 mph 71% 0 in 51 W/m2
08:34 59.9 °F 49.6 °F 30.2 in SE 6 mph 14.5 mph 69% 0 in 51 W/m2
08:40 60.1 °F 49.8 °F 30.2 in SE 7.6 mph 13.6 mph 69% 0 in 47 W/m2
08:45 60.1 °F 51.1 °F 30.2 in SE 6 mph 13.6 mph 72% 0 in 54 W/m2
08:50 60.1 °F 50.4 °F 30.2 in SSE 7.6 mph 15.2 mph 70% 0 in 57 W/m2
08:55 60.3 °F 50.7 °F 30.2 in SSE 3.8 mph 15.2 mph 71% 0 in 57 W/m2
09:00 60.3 °F 50.2 °F 30.2 in South 4.5 mph 13.6 mph 69% 0 in 59 W/m2
09:05 60.3 °F 50.2 °F 30.2 in South 3.8 mph 12.1 mph 69% 0 in 53 W/m2
09:10 60.3 °F 49.6 °F 30.2 in SSE 3.8 mph 13.6 mph 68% 0 in 46 W/m2
09:15 60.3 °F 49.6 °F 30.2 in SSE 6.9 mph 13.6 mph 68% 0 in 40 W/m2
09:20 60.3 °F 49.6 °F 30.2 in SSE 5.4 mph 13.6 mph 68% 0 in 39 W/m2
09:25 60.3 °F 50.2 °F 30.2 in SSE 6.9 mph 11.4 mph 69% 0 in 43 W/m2
09:30 60.3 °F 49.3 °F 30.2 in SSE 8.3 mph 12.1 mph 67% 0 in 56 W/m2
09:35 60.3 °F 48.9 °F 30.2 in SSE 7.6 mph 15.2 mph 66% 0 in 52 W/m2
09:40 60.3 °F 49.3 °F 30.2 in South 9.2 mph 15.2 mph 67% 0 in 56 W/m2
09:45 60.3 °F 49.3 °F 30.2 in South 9.2 mph 15.2 mph 67% 0 in 65 W/m2
09:50 60.3 °F 49.3 °F 30.2 in South 6 mph 15.2 mph 67% 0 in 65 W/m2
09:55 60.4 °F 48.9 °F 30.2 in SSE 5.4 mph 17.4 mph 66% 0 in 79 W/m2
10:00 60.6 °F 49.3 °F 30.2 in SSE 3.8 mph 17.4 mph 66% 0 in 86 W/m2
10:05 60.8 °F 49.5 °F 30.2 in SSE 6.9 mph 13.6 mph 66% 0 in 88 W/m2
10:10 60.8 °F 49.5 °F 30.2 in South 8.3 mph 13.6 mph 66% 0 in 92 W/m2
10:15 60.8 °F 48.9 °F 30.2 in South 9.2 mph 14.5 mph 65% 0 in 102 W/m2
10:20 60.8 °F 48.9 °F 30.2 in South 6 mph 14.5 mph 65% 0 in 92 W/m2
10:25 60.8 °F 48.9 °F 30.2 in South 5.4 mph 14.5 mph 65% 0 in 108 W/m2
10:30 61 °F 48.7 °F 30.2 in South 6.9 mph 13 mph 64% 0 in 129 W/m2
10:35 61.2 °F 49.3 °F 30.2 in SSE 7.6 mph 13 mph 65% 0 in 102 W/m2
10:40 61.2 °F 48.6 °F 30.2 in SSE 6 mph 13 mph 63% 0 in 103 W/m2
10:45 61 °F 48.7 °F 30.2 in South 5.4 mph 13.6 mph 64% 0 in 106 W/m2
10:50 61 °F 48.7 °F 30.2 in South 6.9 mph 13.6 mph 64% 0 in 107 W/m2
10:55 61.2 °F 48.6 °F 30.2 in South 6.9 mph 13.6 mph 63% 0 in 119 W/m2
11:00 61.2 °F 48.6 °F 30.2 in SSE 5.4 mph 13 mph 63% 0 in 125 W/m2
11:05 61.3 °F 48.2 °F 30.2 in SSE 7.6 mph 13 mph 62% 0 in 143 W/m2
11:10 61.5 °F 48.4 °F 30.2 in SSE 8.3 mph 13 mph 62% 0 in 137 W/m2
11:15 61.3 °F 48.7 °F 30.2 in SSE 5.4 mph 15.2 mph 63% 0 in 144 W/m2
11:20 61.5 °F 49.3 °F 30.2 in South 8.3 mph 15.2 mph 64% 0 in 152 W/m2
11:25 61.5 °F 48.4 °F 30.2 in South 9.8 mph 13.6 mph 62% 0 in 175 W/m2
11:30 61.7 °F 48.9 °F 30.2 in South 9.8 mph 14.5 mph 63% 0 in 159 W/m2
11:35 61.7 °F 48.6 °F 30.2 in South 9.2 mph 14.5 mph 62% 0 in 191 W/m2
11:40 61.9 °F 48.7 °F 30.2 in South 6 mph 12.1 mph 62% 0 in 202 W/m2
11:45 62.1 °F 48.9 °F 30.2 in SSW 9.8 mph 13.6 mph 62% 0 in 228 W/m2
11:50 62.2 °F 49.5 °F 30.2 in SSW 6.9 mph 13.6 mph 63% 0 in 229 W/m2
11:55 62.2 °F 49.1 °F 30.2 in South 6 mph 13.6 mph 62% 0 in 204 W/m2
12:00 62.2 °F 49.1 °F 30.2 in South 4.5 mph 15.2 mph 62% 0 in 211 W/m2
12:05 62.4 °F 49.3 °F 30.2 in South 5.4 mph 15.2 mph 62% 0 in 282 W/m2
12:10 62.6 °F 48.9 °F 30.2 in South 5.4 mph 16.8 mph 61% 0 in 291 W/m2
12:15 63.3 °F 49.6 °F 30.2 in SSE 5.4 mph 16.8 mph 61% 0 in 332 W/m2
12:20 63.5 °F 49.8 °F 30.2 in SSE 9.8 mph 12.1 mph 61% 0 in 339 W/m2
12:25 63.9 °F 49.6 °F 30.2 in South 10.7 mph 14.5 mph 60% 0 in 350 W/m2
12:30 63.9 °F 49.3 °F 30.2 in SSE 6.9 mph 14.5 mph 59% 0 in 323 W/m2
12:35 63.3 °F 49.3 °F 30.2 in SSE 6.9 mph 14.5 mph 60% 0 in 269 W/m2
12:40 63.3 °F 47.8 °F 30.2 in SSE 6 mph 13.6 mph 57% 0 in 356 W/m2
12:45 63.7 °F 47.1 °F 30.2 in South 7.6 mph 13.6 mph 55% 0 in 371 W/m2
12:50 64 °F 47.7 °F 30.2 in SSE 3.1 mph 13 mph 55% 0 in 478 W/m2
13:06 64.4 °F 46.9 °F 30.2 in SSE 5.4 mph 13.6 mph 53% 0 in 294 W/m2
13:11 64 °F 47.1 °F 30.2 in South 2.2 mph 13.6 mph 54% 0 in 378 W/m2
13:16 64.8 °F 47.1 °F 30.2 in South 6 mph 12.1 mph 53% 0 in 560 W/m2
13:21 64.8 °F 46.8 °F 30.2 in South 8.3 mph 13.6 mph 52% 0 in 438 W/m2
13:26 64.8 °F 48.2 °F 30.2 in South 4.5 mph 13.6 mph 55% 0 in 477 W/m2
13:31 65.5 °F 47.5 °F 30.2 in South 6.9 mph 13.6 mph 52% 0 in 458 W/m2
13:36 65.7 °F 45.5 °F 30.2 in South 6 mph 9.8 mph 48% 0 in 442 W/m2
13:41 65.3 °F 46.8 °F 30.2 in South 7.6 mph 11.4 mph 51% 0 in 505 W/m2
13:46 66 °F 47.8 °F 30.2 in South 5.4 mph 11.4 mph 52% 0 in 527 W/m2
13:51 65.7 °F 46.6 °F 30.2 in SSE 4.5 mph 13 mph 50% 0 in 514 W/m2
13:56 66 °F 47.5 °F 30.2 in SSE 4.5 mph 13 mph 51% 0 in 534 W/m2
14:01 65.7 °F 47.7 °F 30.2 in SSE 7.6 mph 13 mph 52% 0 in 779 W/m2
14:06 67.1 °F 46.8 °F 30.2 in SSE 3.1 mph 13 mph 48% 0 in 1054 W/m2
14:11 68 °F 46.6 °F 30.2 in SSE 6.9 mph 13 mph 46% 0 in 524 W/m2
14:16 67.8 °F 48 °F 30.2 in SSE 5.4 mph 9.8 mph 49% 0 in 669 W/m2
14:21 66.9 °F 46.6 °F 30.2 in SE 9.2 mph 13 mph 48% 0 in 566 W/m2
14:26 66.2 °F 45.3 °F 30.2 in SSE 8.3 mph 13 mph 47% 0 in 574 W/m2
14:31 66.7 °F 48 °F 30.2 in SSE 4.5 mph 13 mph 51% 0 in 515 W/m2
14:36 66.7 °F 45.9 °F 30.2 in SE 4.5 mph 9.8 mph 47% 0 in 341 W/m2
14:41 65.3 °F 45.7 °F 30.2 in SSE 4.5 mph 10.7 mph 49% 0 in 293 W/m2
14:46 64.9 °F 46.9 °F 30.2 in South 8.3 mph 10.7 mph 52% 0 in 259 W/m2
14:51 64 °F 46 °F 30.2 in South 7.6 mph 11.4 mph 52% 0 in 213 W/m2
14:56 63.7 °F 45.7 °F 30.2 in South 9.2 mph 14.5 mph 52% 0 in 249 W/m2
15:01 63.5 °F 45.1 °F 30.2 in South 4.5 mph 14.5 mph 51% 0 in 228 W/m2
15:06 63.5 °F 45.1 °F 30.2 in South 5.4 mph 14.5 mph 51% 0 in 215 W/m2
15:11 63.5 °F 45.7 °F 30.2 in South 3.8 mph 13 mph 52% 0 in 186 W/m2
15:16 63.5 °F 45.7 °F 30.2 in SSE 3.8 mph 9.8 mph 52% 0 in 158 W/m2
15:21 63.1 °F 45.7 °F 30.2 in SSE 8.3 mph 13.6 mph 53% 0 in 193 W/m2
15:26 63.1 °F 45.7 °F 30.2 in SSE 3.8 mph 13.6 mph 53% 0 in 199 W/m2
15:31 63.3 °F 45.3 °F 30.2 in SSE 6 mph 11.4 mph 52% 0 in 189 W/m2
15:36 63.3 °F 45.3 °F 30.2 in South 5.4 mph 9.8 mph 52% 0 in 192 W/m2
15:41 63.5 °F 45.7 °F 30.2 in Calm   9.8 mph 52% 0 in 175 W/m2
15:46 63.3 °F 45.9 °F 30.2 in SE 3.8 mph 9.8 mph 53% 0 in 172 W/m2
15:51 63.1 °F 45.1 °F 30.2 in SSE 5.4 mph 9.8 mph 52% 0 in 168 W/m2
15:56 63 °F 45.7 °F 30.2 in SSE 3.1 mph 9.8 mph 53% 0 in 168 W/m2
16:01 63.5 °F 46 °F 30.2 in SSE 6 mph 9.2 mph 53% 0 in 184 W/m2
16:06 63.3 °F 45.3 °F 30.2 in South 1.6 mph 9.2 mph 52% 0 in 201 W/m2
16:11 63.5 °F 46 °F 30.2 in South 3.1 mph 11.4 mph 53% 0 in 210 W/m2
16:16 63.3 °F 46.9 °F 30.2 in SSE 3.1 mph 11.4 mph 55% 0 in 191 W/m2
16:21 63.7 °F 46.2 °F 30.2 in SE 4.5 mph 11.4 mph 53% 0 in 190 W/m2
16:26 63.5 °F 46 °F 30.2 in Calm   9.8 mph 53% 0 in 191 W/m2
16:31 64 °F 47.1 °F 30.2 in SSE 3.1 mph 9.8 mph 54% 0 in 208 W/m2
16:36 64 °F 46.6 °F 30.2 in SE 3.8 mph 7.6 mph 53% 0 in 230 W/m2
16:41 64.2 °F 46.8 °F 30.2 in SE 1.6 mph 7.6 mph 53% 0 in 240 W/m2
16:46 64.6 °F 46 °F 30.2 in ESE 4.5 mph 7.6 mph 51% 0 in 255 W/m2
16:51 64.4 °F 46.9 °F 30.2 in SE 5.4 mph 8.3 mph 53% 0 in 229 W/m2
16:56 64.4 °F 45.9 °F 30.2 in SSE 3.1 mph 11.4 mph 51% 0 in 257 W/m2
17:01 64.2 °F 45.7 °F 30.2 in SSE 6 mph 11.4 mph 51% 0 in 324 W/m2
17:06 64.8 °F 46.8 °F 30.2 in SSE 6.9 mph 9.8 mph 52% 0 in 270 W/m2
17:11 64.4 °F 45.3 °F 30.2 in SSE 3.1 mph 13 mph 50% 0 in 233 W/m2
17:16 64 °F 46 °F 30.2 in SSE 6 mph 13 mph 52% 0 in 204 W/m2
17:21 63.7 °F 46.2 °F 30.2 in SE 4.5 mph 9.2 mph 53% 0 in 177 W/m2
17:26 63.5 °F 46.6 °F 30.2 in SE 1.6 mph 10.7 mph 54% 0 in 176 W/m2
17:31 63.3 °F 46.4 °F 30.1 in SSE 2.2 mph 10.7 mph 54% 0 in 132 W/m2
17:36 63.1 °F 46.8 °F 30.1 in SSE 3.1 mph 9.8 mph 55% 0 in 132 W/m2
17:41 63 °F 48 °F 30.1 in SSE 3.8 mph 12.1 mph 58% 0 in 127 W/m2
17:46 63.1 °F 48 °F 30.1 in SE 3.8 mph 12.1 mph 58% 0 in 124 W/m2
17:51 63 °F 48 °F 30.2 in SE 3.8 mph 9.2 mph 58% 0 in 103 W/m2
17:56 62.6 °F 47.1 °F 30.2 in SE 3.1 mph 9.2 mph 57% 0 in 107 W/m2
18:01 62.6 °F 47.1 °F 30.1 in SSE 2.2 mph 9.2 mph 57% 0 in 116 W/m2
18:06 62.6 °F 46.8 °F 30.1 in SE 5.4 mph 10.7 mph 56% 0 in 115 W/m2
18:11 62.4 °F 46.9 °F 30.2 in SE 1.6 mph 10.7 mph 57% 0 in 105 W/m2
18:16 62.4 °F 46.6 °F 30.1 in SSE 1.6 mph 9.2 mph 56% 0 in 128 W/m2
18:21 62.4 °F 46.6 °F 30.1 in SSE 2.2 mph 13 mph 56% 0 in 111 W/m2
18:26 62.2 °F 46.4 °F 30.1 in SSE 3.8 mph 13 mph 56% 0 in 117 W/m2
18:31 62.4 °F 46 °F 30.1 in SE 2.2 mph 13 mph 55% 0 in 106 W/m2
18:36 62.4 °F 45.7 °F 30.1 in SE 6 mph 13 mph 54% 0 in 89 W/m2
18:41 62.4 °F 46 °F 30.1 in SSE 3.1 mph 9.8 mph 55% 0 in 73 W/m2
18:46 62.2 °F 45.9 °F 30.1 in SE 2.2 mph 8.3 mph 55% 0 in 66 W/m2
18:51 62.1 °F 46.2 °F 30.1 in SSE 3.1 mph 7.6 mph 56% 0 in 66 W/m2
18:56 62.1 °F 45.1 °F 30.1 in SSE 6.9 mph 9.2 mph 54% 0 in 61 W/m2
19:01 61.7 °F 44.4 °F 30.1 in SSE 4.5 mph 13.6 mph 53% 0 in 56 W/m2
19:06 61.7 °F 45 °F 30.1 in SSE 5.4 mph 13.6 mph 54% 0 in 50 W/m2
19:11 61.7 °F 45.3 °F 30.1 in South 4.5 mph 9.8 mph 55% 0 in 47 W/m2
19:16 61.5 °F 44.2 °F 30.1 in South 5.4 mph 11.4 mph 53% 0 in 46 W/m2
19:21 61.5 °F 44.2 °F 30.1 in South 5.4 mph 11.4 mph 53% 0 in 43 W/m2
19:26 61.5 °F 44.2 °F 30.1 in South 4.5 mph 12.1 mph 53% 0 in 40 W/m2
19:31 61.5 °F 44.2 °F 30.1 in South 4.5 mph 12.1 mph 53% 0 in 35 W/m2
19:36 61.5 °F 44.2 °F 30.1 in SSE 2.2 mph 9.2 mph 53% 0 in 33 W/m2
19:41 61.5 °F 44.8 °F 30.1 in SSE 3.1 mph 7.6 mph 54% 0 in 34 W/m2
19:46 61.7 °F 45.3 °F 30.1 in SSE 4.5 mph 7.6 mph 55% 0 in 29 W/m2
19:51 61.7 °F 45.3 °F 30.1 in SSE 3.8 mph 7.6 mph 55% 0 in 23 W/m2
19:56 61.5 °F 45.1 °F 30.1 in SSE 0.7 mph 7.6 mph 55% 0 in 18 W/m2
20:01 61.3 °F 45 °F 30.1 in SSE 3.8 mph 6.9 mph 55% 0 in 13 W/m2
20:06 61.2 °F 45.3 °F 30.1 in SSE 2.2 mph 8.3 mph 56% 0 in 10 W/m2
20:11 61 °F 45.1 °F 30.1 in South 3.1 mph 8.3 mph 56% 0 in 6 W/m2
20:16 60.8 °F 45 °F 30.1 in SSE 2.2 mph 7.6 mph 56% 0 in 3 W/m2
20:21 60.4 °F 45.7 °F 30.1 in SSE 2.2 mph 4.5 mph 58% 0 in 1 W/m2
20:26 60.4 °F 46 °F 30.1 in SSE 2.2 mph 4.5 mph 59% 0 in 0 W/m2
20:31 60.4 °F 46 °F 30.1 in SE 1.6 mph 4.5 mph 59% 0 in 0 W/m2
20:36 60.4 °F 46.9 °F 30.1 in SE 2.2 mph 4.5 mph 61% 0 in 0 W/m2
20:41 60.3 °F 47.1 °F 30.1 in SSE 1.6 mph 3.8 mph 62% 0 in 0 W/m2
20:46 60.3 °F 47.7 °F 30.1 in SSE 0.7 mph 3.8 mph 63% 0 in 0 W/m2
20:51 60.3 °F 47.7 °F 30.1 in Calm   3.8 mph 63% 0 in 0 W/m2
20:56 60.1 °F 47.5 °F 30.1 in SE 0.7 mph 3.1 mph 63% 0 in 0 W/m2
21:01 60.1 °F 47.5 °F 30.1 in SSE 3.1 mph 6 mph 63% 0 in 0 W/m2
21:06 60.3 °F 47.1 °F 30.1 in SE 1.6 mph 6 mph 62% 0 in 0 W/m2
21:11 60.4 °F 48.2 °F 30.1 in ESE 2.2 mph 6 mph 64% 0 in 0 W/m2
21:16 60.4 °F 47.8 °F 30.1 in ESE 5.4 mph 6.9 mph 63% 0 in 0 W/m2
21:21 60.6 °F 48 °F 30.1 in East 2.2 mph 7.6 mph 63% 0 in 0 W/m2
21:26 60.6 °F 48.4 °F 30.1 in East 3.1 mph 7.6 mph 64% 0 in 0 W/m2
21:31 60.6 °F 48.4 °F 30.1 in ESE 1.6 mph 5.4 mph 64% 0 in 0 W/m2
21:36 60.4 °F 47.8 °F 30.1 in ESE 1.6 mph 4.5 mph 63% 0 in 0 W/m2
21:41 60.6 °F 48 °F 30.1 in SE 1.6 mph 4.5 mph 63% 0 in 0 W/m2
21:46 60.6 °F 48 °F 30.1 in ESE 0.7 mph 4.5 mph 63% 0 in 0 W/m2
21:51 60.4 °F 48.2 °F 30.1 in SE 2.2 mph 6.9 mph 64% 0 in 0 W/m2
21:56 60.6 °F 48.7 °F 30.1 in SSE 3.8 mph 6.9 mph 65% 0 in 0 W/m2
22:01 60.6 °F 48.7 °F 30.1 in SE 3.8 mph 8.3 mph 65% 0 in 0 W/m2
22:06 60.4 °F 48.2 °F 30.1 in SE 3.1 mph 8.3 mph 64% 0 in 0 W/m2
22:11 60.4 °F 48.2 °F 30.1 in SSE 6 mph 9.2 mph 64% 0 in 0 W/m2
22:16 60.6 °F 48 °F 30.1 in SE 3.8 mph 9.2 mph 63% 0 in 0 W/m2
22:21 60.4 °F 47.8 °F 30.1 in SE 5.4 mph 9.2 mph 63% 0 in 0 W/m2
22:26 60.6 °F 47.5 °F 30.1 in ESE 3.1 mph 7.6 mph 62% 0 in 0 W/m2
22:31 60.6 °F 48 °F 30.1 in East 3.1 mph 8.3 mph 63% 0 in 0 W/m2
22:36 60.6 °F 48 °F 30.1 in East 3.8 mph 8.3 mph 63% 0 in 0 W/m2
22:41 60.4 °F 47.8 °F 30.1 in East 2.2 mph 6.9 mph 63% 0 in 0 W/m2
22:46 60.4 °F 48.2 °F 30.1 in ESE 3.1 mph 6.9 mph 64% 0 in 0 W/m2
22:51 60.4 °F 47.8 °F 30.1 in ESE 3.1 mph 6.9 mph 63% 0 in 0 W/m2
22:56 60.6 °F 47.5 °F 30.1 in Calm   6.9 mph 62% 0 in 0 W/m2
23:01 60.4 °F 47.8 °F 30.1 in East 3.8 mph 6.9 mph 63% 0 in 0 W/m2
23:06 59.7 °F 49.5 °F 30.1 in Calm   6.9 mph 69% 0 in 0 W/m2
23:11 58.3 °F 50 °F 30.1 in NNW 0.7 mph 6 mph 74% 0 in 0 W/m2
23:16 57.4 °F 50.2 °F 30.1 in NNW 2.2 mph 6 mph 77% 0 in 0 W/m2
23:21 56.7 °F 50.9 °F 30.1 in NNW 2.2 mph 6 mph 81% 0 in 0 W/m2
23:26 56.3 °F 51.4 °F 30.1 in North 2.2 mph 6 mph 84% 0 in 0 W/m2
23:31 56.1 °F 51.6 °F 30.1 in NE 3.1 mph 6 mph 85% 0 in 0 W/m2
23:36 55.9 °F 51.4 °F 30.1 in NNE 1.6 mph 4.5 mph 85% 0 in 0 W/m2
23:54 55.2 °F 51.1 °F 30.1 in North 1.6 mph 3.8 mph 86% 0 in 0 W/m2
23:59 55 °F 51.3 °F 30.1 in North 2.2 mph 3.8 mph 87% 0 in 0 W/m2
Northern Hawkes Bay. New Zealand Historic Data
Compliments of Weather Underground - 2 mb